Time;durP1;ratioP1;P1;durP2;ratioP2;P2;SDS_P1;SDS_P2;PMS_P1;PMS_P2;Temp;Humidity;BMP_temperature;BMP_pressure;BME280_temperature;BME280_humidity;BME280_pressure;Samples;Min_cycle;Max_cycle;Signal;HPM_P1;HPM_P2
2021/12/13 00:01:15;;;;;;;7.03;6.33;;;6.70;99.90;;;;;;4934564;29;20501;-67
2021/12/13 00:03:44;;;;;;;5.83;4.50;;;6.70;99.90;;;;;;4924435;29;20437;-68
2021/12/13 00:06:17;;;;;;;7.23;5.33;;;6.80;99.90;;;;;;4934341;29;20468;-68
2021/12/13 00:08:57;;;;;;;5.27;4.40;;;6.60;99.90;;;;;;4934288;29;20457;-68
2021/12/13 00:11:38;;;;;;;8.87;4.90;;;6.40;99.90;;;;;;4934271;29;20568;-67
2021/12/13 00:14:13;;;;;;;5.27;4.30;;;6.30;99.90;;;;;;4934448;29;20455;-67
2021/12/13 00:16:45;;;;;;;6.53;4.90;;;6.30;99.90;;;;;;4933780;29;20436;-67
2021/12/13 00:19:19;;;;;;;6.50;4.23;;;6.50;99.90;;;;;;4934269;29;20481;-67
2021/12/13 00:21:59;;;;;;;4.70;4.30;;;6.60;99.90;;;;;;4934308;29;20500;-67
2021/12/13 00:24:28;;;;;;;9.30;4.90;;;6.60;99.90;;;;;;4933995;29;20942;-67
2021/12/13 00:27:14;;;;;;;4.80;4.40;;;6.60;99.90;;;;;;4934173;29;20484;-67
2021/12/13 00:30:06;;;;;;;6.20;4.27;;;6.70;99.90;;;;;;4933717;28;20441;-68
2021/12/13 00:32:58;;;;;;;4.60;3.80;;;6.70;99.90;;;;;;4934349;29;20442;-67
2021/12/13 00:35:32;;;;;;;4.77;4.27;;;6.70;99.90;;;;;;4934292;29;20468;-67
2021/12/13 00:38:01;;;;;;;7.90;4.10;;;6.70;99.90;;;;;;4933905;29;21598;-67
2021/12/13 00:40:39;;;;;;;8.70;4.90;;;6.60;99.90;;;;;;4933955;29;20457;-67
2021/12/13 00:43:12;;;;;;;3.93;3.53;;;6.70;99.90;;;;;;4933696;29;20961;-67
2021/12/13 00:45:47;;;;;;;5.33;4.50;;;6.70;99.90;;;;;;4934025;29;20441;-66
2021/12/13 00:48:14;;;;;;;5.17;4.60;;;6.70;99.90;;;;;;4924838;29;20440;-67
2021/12/13 00:50:50;;;;;;;9.67;5.17;;;6.80;99.90;;;;;;4937709;29;20464;-65
2021/12/13 00:53:21;;;;;;;6.83;5.20;;;6.80;99.90;;;;;;4937986;29;20584;-68
2021/12/13 00:55:48;;;;;;;7.77;4.57;;;6.80;99.90;;;;;;4937165;29;20997;-66
2021/12/13 00:58:22;;;;;;;8.03;4.40;;;6.70;99.90;;;;;;4937761;29;20964;-66
2021/12/13 01:01:01;;;;;;;6.37;4.90;;;6.60;99.90;;;;;;4937926;29;20988;-66
2021/12/13 01:03:43;;;;;;;5.57;4.77;;;6.80;99.90;;;;;;4937672;29;20437;-67
2021/12/13 01:06:31;;;;;;;6.10;4.70;;;6.80;99.90;;;;;;4935767;29;20433;-67
2021/12/13 01:09:34;;;;;;;7.70;5.53;;;6.80;99.90;;;;;;4937615;29;20433;-66
2021/12/13 01:12:06;;;;;;;5.60;4.70;;;6.70;99.90;;;;;;4934296;29;20523;-67
2021/12/13 01:14:52;;;;;;;5.47;4.23;;;6.60;99.90;;;;;;4929315;29;20433;-67
2021/12/13 01:17:51;;;;;;;6.27;4.80;;;6.70;99.90;;;;;;4937231;29;20523;-67
2021/12/13 01:20:55;;;;;;;6.63;5.07;;;6.60;99.90;;;;;;4936099;29;20448;-67
2021/12/13 01:23:38;;;;;;;12.70;4.97;;;6.50;99.90;;;;;;4937132;29;20452;-67
2021/12/13 01:28:47;;;;;;;6.20;5.60;;;6.50;99.90;;;;;;4937327;29;20930;-67
2021/12/13 01:31:17;;;;;;;7.50;5.23;;;6.40;99.90;;;;;;4937108;29;20528;-67
2021/12/13 01:33:46;;;;;;;9.60;5.57;;;6.30;99.90;;;;;;4937018;28;20433;-67
2021/12/13 01:36:21;;;;;;;5.77;5.17;;;6.40;99.90;;;;;;4936858;29;20463;-66
2021/12/13 01:38:52;;;;;;;6.30;5.53;;;6.40;99.90;;;;;;4930158;29;20460;-67
2021/12/13 01:41:25;;;;;;;6.60;5.70;;;6.40;99.90;;;;;;4937159;29;20539;-67
2021/12/13 01:43:57;;;;;;;8.07;5.60;;;6.30;99.90;;;;;;4936755;29;20433;-68
2021/12/13 01:46:24;;;;;;;9.20;5.90;;;6.30;99.90;;;;;;4936827;29;20516;-66
2021/12/13 01:48:52;;;;;;;8.13;6.53;;;6.20;99.90;;;;;;4936555;29;20477;-68
2021/12/13 01:51:22;;;;;;;8.30;5.57;;;6.10;99.90;;;;;;4936766;29;21029;-67
2021/12/13 01:53:56;;;;;;;5.70;5.20;;;6.20;99.90;;;;;;4936962;29;20440;-67
2021/12/13 01:56:46;;;;;;;6.13;5.00;;;6.30;99.90;;;;;;4936372;29;20811;-67
2021/12/13 02:02:12;;;;;;;6.83;5.43;;;6.20;99.90;;;;;;4936978;29;20953;-67
2021/12/13 02:04:39;;;;;;;7.23;5.10;;;6.20;99.90;;;;;;4936044;29;20464;-67
2021/12/13 02:07:05;;;;;;;9.27;5.73;;;6.30;99.90;;;;;;4936590;29;20441;-67
2021/12/13 02:09:40;;;;;;;6.53;5.70;;;6.30;99.90;;;;;;4936251;29;20565;-67
2021/12/13 02:12:14;;;;;;;6.17;5.50;;;6.20;99.90;;;;;;4936866;28;20939;-67
2021/12/13 02:16:55;;;;;;;6.30;5.70;;;6.20;99.90;;;;;;4936449;29;20517;-67
2021/12/13 02:17:37;;;;;;;8.57;5.90;;;6.10;99.90;;;;;;4935968;29;21053;-67
2021/12/13 02:20:21;;;;;;;7.17;5.60;;;6.00;99.90;;;;;;4936422;29;20445;-67
2021/12/13 02:22:49;;;;;;;6.77;5.33;;;6.00;99.90;;;;;;4936246;29;20433;-67
2021/12/13 02:25:45;;;;;;;5.50;5.00;;;6.00;99.90;;;;;;4935964;29;20429;-67
2021/12/13 02:28:15;;;;;;;5.30;4.80;;;6.10;99.90;;;;;;4936387;29;20437;-67
2021/12/13 02:30:46;;;;;;;8.07;6.33;;;5.90;99.90;;;;;;4936291;29;20468;-67
2021/12/13 02:33:24;;;;;;;6.80;5.37;;;5.80;99.90;;;;;;4936108;29;20430;-66
2021/12/13 02:36:12;;;;;;;11.40;5.80;;;5.80;99.90;;;;;;4935503;29;20492;-67
2021/12/13 02:38:39;;;;;;;5.30;4.80;;;5.80;99.90;;;;;;4935861;29;20438;-68
2021/12/13 02:41:06;;;;;;;7.97;5.10;;;6.00;99.90;;;;;;4935888;29;20466;-67
2021/12/13 02:43:40;;;;;;;8.10;5.53;;;6.10;99.90;;;;;;4936029;29;20465;-67
2021/12/13 02:46:06;;;;;;;8.37;5.40;;;6.20;99.90;;;;;;4935181;29;20516;-67
2021/12/13 02:48:37;;;;;;;14.30;6.33;;;6.20;99.90;;;;;;4935954;29;20446;-68
2021/12/13 02:51:17;;;;;;;8.53;5.60;;;6.10;99.90;;;;;;4935543;29;20481;-67
2021/12/13 02:53:59;;;;;;;10.07;6.33;;;6.00;99.90;;;;;;4935800;29;20435;-67
2021/12/13 02:56:30;;;;;;;7.60;6.70;;;5.90;99.90;;;;;;4935160;29;20500;-68
2021/12/13 02:58:58;;;;;;;9.73;6.90;;;5.80;99.90;;;;;;4935323;29;20445;-67
2021/12/13 03:01:33;;;;;;;8.97;7.03;;;5.70;99.90;;;;;;4935777;29;20441;-66
2021/12/13 03:04:04;;;;;;;9.80;6.10;;;5.70;99.90;;;;;;4935684;29;20536;-67
2021/12/13 03:06:34;;;;;;;8.07;6.73;;;5.70;99.90;;;;;;4935069;29;20445;-68
2021/12/13 03:09:24;;;;;;;9.80;6.90;;;5.70;99.90;;;;;;4932760;29;20473;-67
2021/12/13 03:11:52;;;;;;;10.20;7.50;;;5.80;99.90;;;;;;4935042;29;20889;-67
2021/12/13 03:14:23;;;;;;;7.93;6.60;;;5.90;99.90;;;;;;4935293;29;20433;-67
2021/12/13 03:16:57;;;;;;;8.90;7.17;;;5.90;99.90;;;;;;4931160;29;20797;-67
2021/12/13 03:19:34;;;;;;;8.23;7.13;;;5.80;99.90;;;;;;4934935;29;20489;-67
2021/12/13 03:22:19;;;;;;;10.00;7.13;;;5.80;99.90;;;;;;4935433;29;20463;-67
2021/12/13 03:25:08;;;;;;;11.53;7.03;;;5.70;99.90;;;;;;4935104;29;20827;-67
2021/12/13 03:27:53;;;;;;;9.67;7.50;;;5.70;99.90;;;;;;4935201;29;20805;-67
2021/12/13 03:30:25;;;;;;;9.77;7.80;;;5.70;99.90;;;;;;4934831;29;20467;-67
2021/12/13 03:32:59;;;;;;;9.00;7.30;;;5.70;99.90;;;;;;4934921;29;20438;-67
2021/12/13 03:35:41;;;;;;;10.60;6.83;;;5.70;99.90;;;;;;4934797;29;20440;-67
2021/12/13 03:38:13;;;;;;;7.97;6.97;;;5.80;99.90;;;;;;4928710;29;20448;-67
2021/12/13 03:40:40;;;;;;;10.90;6.97;;;5.80;99.90;;;;;;4934870;29;20453;-66
2021/12/13 03:43:11;;;;;;;9.33;7.53;;;5.90;99.90;;;;;;4935002;29;20441;-67
2021/12/13 03:45:48;;;;;;;10.17;6.43;;;6.00;99.90;;;;;;4934583;29;20441;-67
2021/12/13 03:48:17;;;;;;;7.90;7.10;;;6.10;99.90;;;;;;4934527;29;20816;-67
2021/12/13 03:50:47;;;;;;;9.10;7.27;;;6.20;99.90;;;;;;4934538;29;20544;-67
2021/12/13 03:53:17;;;;;;;9.93;8.20;;;6.30;99.90;;;;;;4932163;29;20433;-66
2021/12/13 03:55:46;;;;;;;9.63;6.70;;;6.40;99.90;;;;;;4934973;29;20543;-67
2021/12/13 03:58:16;;;;;;;7.20;6.50;;;6.40;99.90;;;;;;4935024;29;20437;-67
2021/12/13 04:00:48;;;;;;;9.33;7.60;;;6.50;99.90;;;;;;4935084;29;20835;-67
2021/12/13 04:03:16;;;;;;;7.93;6.57;;;6.40;99.90;;;;;;4934784;29;20508;-66
2021/12/13 04:05:43;;;;;;;7.57;6.87;;;6.40;99.90;;;;;;4934349;29;20465;-67
2021/12/13 04:08:12;;;;;;;12.20;7.47;;;6.50;99.90;;;;;;4934838;29;20441;-67
2021/12/13 04:10:45;;;;;;;8.90;6.80;;;6.50;99.90;;;;;;4934651;29;20512;-67
2021/12/13 04:13:15;;;;;;;10.13;6.60;;;6.40;99.90;;;;;;4934763;29;20537;-67
2021/12/13 04:16:13;;;;;;;6.90;6.30;;;6.30;99.90;;;;;;4924457;29;20465;-67
2021/12/13 04:21:24;;;;;;;7.57;6.80;;;6.50;99.90;;;;;;4930454;29;20441;-67
2021/12/13 04:23:57;;;;;;;8.57;6.07;;;6.40;99.90;;;;;;4934373;29;20444;-67
2021/12/13 04:26:24;;;;;;;7.50;6.13;;;6.50;99.90;;;;;;4934278;29;20445;-67
2021/12/13 04:28:54;;;;;;;8.03;7.13;;;6.60;99.90;;;;;;4934356;29;20990;-67
2021/12/13 04:31:23;;;;;;;11.50;6.40;;;6.70;99.90;;;;;;4934266;29;20461;-67
2021/12/13 04:33:55;;;;;;;8.90;6.47;;;6.70;99.90;;;;;;4934351;29;20529;-67
2021/12/13 04:36:30;;;;;;;10.93;7.27;;;6.80;99.90;;;;;;4933899;29;20969;-67
2021/12/13 04:39:00;;;;;;;8.10;7.30;;;6.80;99.90;;;;;;4927451;29;20429;-67
2021/12/13 04:41:32;;;;;;;7.00;6.30;;;6.60;99.90;;;;;;4934118;29;20527;-67
2021/12/13 04:44:11;;;;;;;11.10;6.47;;;6.60;99.90;;;;;;4926698;29;20697;-67
2021/12/13 04:46:40;;;;;;;11.30;7.53;;;6.70;99.90;;;;;;4933774;29;20441;-67
2021/12/13 04:49:13;;;;;;;7.40;6.70;;;6.80;99.90;;;;;;4933982;29;20472;-67
2021/12/13 04:51:43;;;;;;;8.20;7.40;;;6.90;99.90;;;;;;4933982;29;20472;-67
2021/12/13 04:54:11;;;;;;;7.60;6.90;;;6.80;99.90;;;;;;4934151;29;20499;-67
2021/12/13 04:56:38;;;;;;;8.40;7.10;;;6.70;99.90;;;;;;4933657;29;20524;-67
2021/12/13 04:59:09;;;;;;;11.10;7.10;;;6.80;99.90;;;;;;4933913;29;21078;-67
2021/12/13 05:01:36;;;;;;;7.40;6.73;;;6.80;99.90;;;;;;4933956;29;20445;-67
2021/12/13 05:04:04;;;;;;;8.40;7.57;;;6.80;99.90;;;;;;4933816;29;20433;-67
2021/12/13 05:06:33;;;;;;;8.33;6.50;;;6.70;99.90;;;;;;4933889;29;20500;-67
2021/12/13 05:09:03;;;;;;;9.03;7.50;;;6.70;99.90;;;;;;4933531;29;20461;-67
2021/12/13 05:11:48;;;;;;;9.00;7.73;;;6.60;99.90;;;;;;4934095;29;20536;-67
2021/12/13 05:14:14;;;;;;;7.13;6.43;;;6.60;99.90;;;;;;4920803;29;20446;-67
2021/12/13 05:16:45;;;;;;;7.77;6.97;;;6.60;99.90;;;;;;4933843;29;20488;-67
2021/12/13 05:19:14;;;;;;;8.37;7.47;;;6.60;99.90;;;;;;4933686;29;20469;-67
2021/12/13 05:21:41;;;;;;;7.87;7.07;;;6.60;99.90;;;;;;4933749;29;20441;-67
2021/12/13 05:24:17;;;;;;;10.87;7.50;;;6.70;99.90;;;;;;4919892;29;20452;-67
2021/12/13 05:26:43;;;;;;;8.30;7.47;;;6.80;99.90;;;;;;4933695;29;20441;-67
2021/12/13 05:29:30;;;;;;;8.20;7.40;;;6.70;99.90;;;;;;4931922;29;20463;-67
2021/12/13 05:32:17;;;;;;;7.90;6.87;;;6.80;99.90;;;;;;4934500;29;20422;-67
2021/12/13 05:34:48;;;;;;;10.07;6.90;;;6.80;99.90;;;;;;4937166;29;20444;-67
2021/12/13 05:37:15;;;;;;;8.50;7.33;;;6.90;99.90;;;;;;4937305;29;20942;-67
2021/12/13 05:39:56;;;;;;;7.87;7.07;;;6.90;99.90;;;;;;4936753;29;20677;-67
2021/12/13 05:42:38;;;;;;;7.20;6.50;;;6.90;99.90;;;;;;4937308;29;20524;-67
2021/12/13 05:45:06;;;;;;;9.03;7.13;;;6.90;99.90;;;;;;4936757;29;20437;-67
2021/12/13 05:47:32;;;;;;;11.57;7.27;;;6.90;99.90;;;;;;4936878;29;20441;-67
2021/12/13 05:49:58;;;;;;;7.77;7.07;;;6.90;99.90;;;;;;4936745;29;20461;-67
2021/12/13 05:52:37;;;;;;;9.47;6.60;;;6.90;99.90;;;;;;4936666;29;20188;-67
2021/12/13 05:55:12;;;;;;;8.37;6.40;;;6.80;99.90;;;;;;4936749;29;20600;-67
2021/12/13 05:57:43;;;;;;;8.70;7.53;;;6.70;99.90;;;;;;4936933;29;20801;-67
2021/12/13 06:00:17;;;;;;;9.60;7.80;;;6.80;99.90;;;;;;4936811;29;20473;-67
2021/12/13 06:03:02;;;;;;;9.37;6.77;;;6.90;99.90;;;;;;4936551;29;20869;-67
2021/12/13 06:05:38;;;;;;;8.90;7.27;;;6.90;99.90;;;;;;4936490;29;20802;-67
2021/12/13 06:08:18;;;;;;;9.47;8.50;;;6.80;99.90;;;;;;4931025;29;20450;-67
2021/12/13 06:10:46;;;;;;;11.77;8.87;;;6.80;99.90;;;;;;4931269;29;20482;-68
2021/12/13 06:13:23;;;;;;;10.67;9.07;;;6.80;99.90;;;;;;4936606;29;20438;-67
2021/12/13 06:15:50;;;;;;;8.20;7.30;;;6.70;99.90;;;;;;4936028;29;20512;-67
2021/12/13 06:18:29;;;;;;;12.03;8.97;;;6.60;99.90;;;;;;4936497;29;20429;-67
2021/12/13 06:21:06;;;;;;;14.90;8.80;;;6.60;99.90;;;;;;4935210;29;20466;-67
2021/12/13 06:23:33;;;;;;;9.90;8.43;;;6.60;99.90;;;;;;4936293;29;20433;-67
2021/12/13 06:26:03;;;;;;;17.40;9.30;;;6.50;99.90;;;;;;4936240;29;20954;-67
2021/12/13 06:28:35;;;;;;;11.87;8.60;;;6.50;99.90;;;;;;4936089;29;20465;-67
2021/12/13 06:31:17;;;;;;;10.93;8.67;;;6.30;99.90;;;;;;4936081;29;20542;-68
2021/12/13 06:33:52;;;;;;;12.00;7.97;;;6.30;99.90;;;;;;4935845;29;20876;-67
2021/12/13 06:36:30;;;;;;;9.80;8.80;;;6.30;99.90;;;;;;4935739;29;20456;-68
2021/12/13 06:39:07;;;;;;;14.23;9.70;;;6.40;99.90;;;;;;4935917;29;20429;-68
2021/12/13 06:41:43;;;;;;;17.77;9.73;;;6.50;99.90;;;;;;4935873;29;20445;-68
2021/12/13 06:44:30;;;;;;;12.40;9.53;;;6.60;99.90;;;;;;4934891;29;21006;-67
2021/12/13 06:47:10;;;;;;;13.57;9.30;;;6.70;99.90;;;;;;4935403;29;20444;-67
2021/12/13 06:49:38;;;;;;;14.37;11.43;;;6.70;99.90;;;;;;4935626;29;20994;-67
2021/12/13 06:52:12;;;;;;;15.40;10.50;;;6.60;99.90;;;;;;4935704;29;20524;-68
2021/12/13 06:55:04;;;;;;;14.50;11.07;;;6.60;99.90;;;;;;4935476;29;20825;-67
2021/12/13 06:57:30;;;;;;;15.93;11.60;;;6.70;99.90;;;;;;4935526;29;20800;-68
2021/12/13 07:00:18;;;;;;;14.90;11.30;;;6.80;99.90;;;;;;4935367;29;20540;-67
2021/12/13 07:03:00;;;;;;;16.47;10.70;;;6.80;99.90;;;;;;4926559;29;20196;-67
2021/12/13 07:05:28;;;;;;;13.10;11.03;;;6.80;99.90;;;;;;4935149;29;21066;-67
2021/12/13 07:07:59;;;;;;;16.37;12.50;;;6.80;99.90;;;;;;4935268;29;20806;-67
2021/12/13 07:10:52;;;;;;;12.97;11.50;;;6.80;99.90;;;;;;4935151;29;20468;-68
2021/12/13 07:13:23;;;;;;;16.60;11.07;;;6.90;99.90;;;;;;4935479;29;20438;-68
2021/12/13 07:16:00;;;;;;;14.60;10.47;;;6.80;99.90;;;;;;4935048;29;20465;-68
2021/12/13 07:18:41;;;;;;;18.00;11.80;;;6.90;99.90;;;;;;4935357;29;20424;-67
2021/12/13 07:21:31;;;;;;;13.57;11.70;;;6.80;99.90;;;;;;4930007;29;20516;-68
2021/12/13 07:24:05;;;;;;;13.07;10.70;;;6.90;99.90;;;;;;4933817;29;20440;-67
2021/12/13 07:26:39;;;;;;;16.10;10.60;;;7.00;99.90;;;;;;4934594;29;20822;-67
2021/12/13 07:29:19;;;;;;;14.07;10.77;;;7.00;99.90;;;;;;4935148;29;20465;-67
2021/12/13 07:31:59;;;;;;;21.57;14.10;;;6.90;99.90;;;;;;4935022;29;20469;-67
2021/12/13 07:34:25;;;;;;;14.87;12.90;;;6.80;99.90;;;;;;4929511;29;20845;-68
2021/12/13 07:36:55;;;;;;;13.23;11.30;;;6.80;99.90;;;;;;4934847;29;20531;-67
2021/12/13 07:39:25;;;;;;;16.93;11.80;;;6.80;99.90;;;;;;4934652;29;20200;-67
2021/12/13 07:41:57;;;;;;;23.07;12.67;;;6.70;99.90;;;;;;4934762;29;20472;-68
2021/12/13 07:44:43;;;;;;;15.70;11.40;;;6.70;99.90;;;;;;4934940;29;20497;-68
2021/12/13 07:47:14;;;;;;;16.87;12.07;;;6.90;99.90;;;;;;4934810;29;20500;-68
2021/12/13 07:49:44;;;;;;;18.30;11.20;;;7.00;99.90;;;;;;4934661;29;20464;-67
2021/12/13 07:52:24;;;;;;;18.13;12.30;;;7.00;99.90;;;;;;4934550;29;21230;-68
2021/12/13 07:54:49;;;;;;;17.10;11.03;;;7.00;99.90;;;;;;4934928;29;20469;-68
2021/12/13 07:57:22;;;;;;;14.87;11.80;;;7.00;99.90;;;;;;4934580;29;20533;-67
2021/12/13 07:59:49;;;;;;;17.97;14.03;;;7.10;99.90;;;;;;4934676;29;20546;-68
2021/12/13 08:02:17;;;;;;;17.27;13.03;;;7.20;99.90;;;;;;4934688;29;20549;-68
2021/12/13 08:05:11;;;;;;;17.50;12.47;;;7.20;99.90;;;;;;4934376;29;20863;-68
2021/12/13 08:07:44;;;;;;;16.50;11.87;;;7.30;99.90;;;;;;4934140;29;20982;-68
2021/12/13 08:10:17;;;;;;;19.73;11.67;;;7.40;99.90;;;;;;4934402;29;20504;-68
2021/12/13 08:12:47;;;;;;;16.70;11.40;;;7.40;99.90;;;;;;4934471;29;20480;-68
2021/12/13 08:15:33;;;;;;;12.30;10.80;;;7.30;99.90;;;;;;4933829;29;20429;-68
2021/12/13 08:18:10;;;;;;;14.20;12.00;;;7.40;99.90;;;;;;4921135;29;20484;-67
2021/12/13 08:20:43;;;;;;;19.83;14.03;;;7.30;99.90;;;;;;4902499;29;20749;-68
2021/12/13 08:23:23;;;;;;;16.00;11.80;;;7.30;99.90;;;;;;4927243;29;20444;-68
2021/12/13 08:25:53;;;;;;;20.27;11.53;;;7.50;99.90;;;;;;4934118;29;21033;-68
2021/12/13 08:28:32;;;;;;;18.23;13.27;;;7.60;99.90;;;;;;4928723;29;20837;-68
2021/12/13 08:30:59;;;;;;;18.20;12.17;;;7.50;99.90;;;;;;4931258;29;20475;-67
2021/12/13 08:33:40;;;;;;;16.73;12.43;;;7.40;99.90;;;;;;4926328;29;20807;-67
2021/12/13 08:36:28;;;;;;;19.87;13.30;;;7.40;99.90;;;;;;4927259;29;20801;-67
2021/12/13 08:39:00;;;;;;;18.63;13.90;;;7.50;99.90;;;;;;4930495;29;20448;-67
2021/12/13 08:41:45;;;;;;;19.20;13.30;;;7.30;99.90;;;;;;4933763;29;20429;-66
2021/12/13 08:44:11;;;;;;;20.70;13.67;;;7.20;99.90;;;;;;4933924;29;20441;-67
2021/12/13 08:47:06;;;;;;;20.33;13.67;;;7.00;99.90;;;;;;4933710;29;20456;-67
2021/12/13 08:49:58;;;;;;;22.33;15.47;;;7.10;99.90;;;;;;4927015;29;20213;-67
2021/12/13 08:52:32;;;;;;;21.23;15.67;;;7.20;99.90;;;;;;4932640;29;20578;-67
2021/12/13 08:55:20;;;;;;;19.53;13.17;;;7.30;99.90;;;;;;4933768;29;20417;-67
2021/12/13 08:57:53;;;;;;;17.20;12.00;;;7.40;99.90;;;;;;4934178;29;20429;-67
2021/12/13 09:00:33;;;;;;;14.90;12.07;;;7.50;99.90;;;;;;4925108;29;20449;-67
2021/12/13 09:03:13;;;;;;;14.30;10.80;;;7.40;99.90;;;;;;4929434;29;20803;-67
2021/12/13 09:06:03;;;;;;;16.03;11.40;;;7.50;99.90;;;;;;4930612;29;20433;-67
2021/12/13 09:08:50;;;;;;;20.77;11.67;;;7.60;99.90;;;;;;4927536;29;20432;-67
2021/12/13 09:11:18;;;;;;;19.43;11.20;;;7.60;99.90;;;;;;4930801;29;20460;-66
2021/12/13 09:13:57;;;;;;;22.03;11.60;;;7.70;99.90;;;;;;4934624;29;20782;-67
2021/12/13 09:16:29;;;;;;;21.20;11.87;;;7.60;99.90;;;;;;4934165;29;20953;-67
2021/12/13 09:19:19;;;;;;;15.53;11.60;;;7.50;99.90;;;;;;4928277;29;20433;-66
2021/12/13 09:21:56;;;;;;;18.83;11.70;;;7.40;99.90;;;;;;4933360;29;21009;-66
2021/12/13 09:24:30;;;;;;;20.13;12.17;;;7.40;99.90;;;;;;4934556;29;20445;-66
2021/12/13 09:27:08;;;;;;;24.73;12.10;;;7.40;99.90;;;;;;4933948;29;20441;-67
2021/12/13 09:29:46;;;;;;;17.70;11.07;;;7.40;99.90;;;;;;4930391;29;20461;-67
2021/12/13 09:32:14;;;;;;;20.63;10.00;;;7.50;99.90;;;;;;4933821;29;20477;-67
2021/12/13 09:34:39;;;;;;;19.00;11.03;;;7.60;99.90;;;;;;4933506;29;20444;-67
2021/12/13 09:37:06;;;;;;;13.03;9.80;;;7.70;99.90;;;;;;4934005;29;20433;-66
2021/12/13 09:39:32;;;;;;;12.20;8.70;;;7.80;99.90;;;;;;4930251;29;20663;-67
2021/12/13 09:42:12;;;;;;;12.47;10.43;;;7.90;99.90;;;;;;4933768;29;20437;-67
2021/12/13 09:44:55;;;;;;;14.47;8.90;;;8.10;99.90;;;;;;4933553;29;20205;-67
2021/12/13 09:47:34;;;;;;;12.80;8.50;;;8.50;99.90;;;;;;4933517;29;20436;-67
2021/12/13 09:50:26;;;;;;;13.00;8.17;;;8.60;99.90;;;;;;4929263;29;20679;-66
2021/12/13 09:53:05;;;;;;;11.60;7.70;;;8.60;99.90;;;;;;4933510;29;20437;-67
2021/12/13 09:55:36;;;;;;;10.37;7.80;;;8.80;99.90;;;;;;4933253;29;20521;-67
2021/12/13 09:58:17;;;;;;;9.07;6.87;;;8.80;99.90;;;;;;4933835;29;20521;-67
2021/12/13 10:00:51;;;;;;;9.40;6.13;;;9.00;99.90;;;;;;4931090;29;21017;-67
2021/12/13 10:03:33;;;;;;;7.93;7.13;;;9.20;99.90;;;;;;4932555;29;20510;-67
2021/12/13 10:06:05;;;;;;;9.10;6.10;;;10.00;99.90;;;;;;4930439;29;20444;-67
2021/12/13 10:09:06;;;;;;;7.23;6.03;;;10.90;99.90;;;;;;4921660;29;20437;-67
2021/12/13 10:11:54;;;;;;;5.57;5.03;;;12.70;99.90;;;;;;4931443;29;20535;-67
2021/12/13 10:14:24;;;;;;;6.30;5.70;;;14.30;99.90;;;;;;4907948;29;20441;-66
2021/12/13 10:16:54;;;;;;;8.40;5.30;;;14.70;99.90;;;;;;4933096;29;20437;-67
2021/12/13 10:19:26;;;;;;;10.40;7.30;;;14.70;99.90;;;;;;4925336;29;20462;-67
2021/12/13 10:21:52;;;;;;;6.60;5.20;;;14.30;99.90;;;;;;4933458;29;20881;-66
2021/12/13 10:24:35;;;;;;;7.27;6.00;;;13.90;99.90;;;;;;4933051;29;20896;-67
2021/12/13 10:27:03;;;;;;;5.70;5.10;;;13.50;99.90;;;;;;4933075;29;20195;-67
2021/12/13 10:29:29;;;;;;;7.93;7.20;;;12.90;99.90;;;;;;4929318;29;20527;-67
2021/12/13 10:32:05;;;;;;;7.90;6.37;;;12.30;99.90;;;;;;4924752;29;20473;-67
2021/12/13 10:34:34;;;;;;;7.93;6.60;;;12.00;99.90;;;;;;4932798;29;20590;-67
2021/12/13 10:37:16;;;;;;;12.60;9.30;;;11.30;99.90;;;;;;4927828;29;20959;-67
2021/12/13 10:39:46;;;;;;;7.37;6.33;;;11.20;99.90;;;;;;4932395;29;20527;-67
2021/12/13 10:42:20;;;;;;;6.17;5.53;;;11.10;99.90;;;;;;4935902;29;20426;-67
2021/12/13 10:44:46;;;;;;;6.27;5.70;;;11.10;99.90;;;;;;4936020;29;20962;-67
2021/12/13 10:47:31;;;;;;;6.67;6.07;;;10.60;99.90;;;;;;4935625;29;20480;-67
2021/12/13 10:49:57;;;;;;;6.97;5.43;;;10.50;99.90;;;;;;4930806;29;20460;-67
2021/12/13 10:52:37;;;;;;;8.23;5.70;;;10.30;99.90;;;;;;4935616;29;20806;-67
2021/12/13 10:55:11;;;;;;;8.63;6.53;;;10.10;99.90;;;;;;4935389;29;20786;-67
2021/12/13 10:57:43;;;;;;;5.83;5.23;;;9.90;99.90;;;;;;4935650;29;20433;-67
2021/12/13 11:00:13;;;;;;;4.80;4.40;;;9.90;99.90;;;;;;4932041;29;20448;-67
2021/12/13 11:02:39;;;;;;;7.40;4.90;;;10.30;99.90;;;;;;4935680;29;20541;-67
2021/12/13 11:05:13;;;;;;;6.63;4.47;;;10.30;99.90;;;;;;4935197;29;20441;-67
2021/12/13 11:07:39;;;;;;;8.27;4.97;;;10.20;99.90;;;;;;4935563;29;20659;-67
2021/12/13 11:10:08;;;;;;;10.37;7.37;;;10.20;99.90;;;;;;4921608;29;20462;-67
2021/12/13 11:12:38;;;;;;;5.47;4.97;;;10.30;99.90;;;;;;4933157;29;20444;-67
2021/12/13 11:15:17;;;;;;;8.47;5.90;;;10.50;99.90;;;;;;4935024;29;20433;-67
2021/12/13 11:17:43;;;;;;;5.63;3.33;;;11.00;99.90;;;;;;4935285;29;20499;-67
2021/12/13 11:20:43;;;;;;;3.70;3.20;;;10.70;99.90;;;;;;4931564;29;20532;-66
2021/12/13 11:23:12;;;;;;;2.67;2.40;;;10.40;99.90;;;;;;4920442;29;20445;-65
2021/12/13 11:25:47;;;;;;;4.17;2.83;;;10.30;99.90;;;;;;4934611;29;20425;-66
2021/12/13 11:28:15;;;;;;;5.53;4.30;;;10.20;99.90;;;;;;4931751;29;20433;-65
2021/12/13 11:30:42;;;;;;;4.83;3.03;;;10.10;99.90;;;;;;4931881;29;21041;-66
2021/12/13 11:33:16;;;;;;;4.57;3.17;;;10.10;99.90;;;;;;4935046;29;20448;-65
2021/12/13 11:36:22;;;;;;;4.90;3.90;;;10.20;99.90;;;;;;4934226;29;20850;-66
2021/12/13 11:39:20;;;;;;;5.27;4.03;;;10.90;99.90;;;;;;4930931;29;20778;-66
2021/12/13 11:42:13;;;;;;;4.10;3.70;;;11.60;99.90;;;;;;4934472;29;20532;-66
2021/12/13 11:45:23;;;;;;;3.73;3.43;;;12.00;99.90;;;;;;4934983;29;20444;-66
2021/12/13 11:48:26;;;;;;;8.50;5.57;;;12.20;99.90;;;;;;4924565;29;20508;-66
2021/12/13 11:51:11;;;;;;;4.07;3.67;;;12.70;99.90;;;;;;4933056;29;20461;-66
2021/12/13 11:54:15;;;;;;;3.63;3.30;;;12.80;99.90;;;;;;4934513;29;20770;-66
2021/12/13 11:57:23;;;;;;;3.70;3.40;;;12.70;99.90;;;;;;4934668;29;20429;-66
2021/12/13 12:00:30;;;;;;;4.40;4.00;;;12.50;99.90;;;;;;4923360;29;20465;-66
2021/12/13 12:03:20;;;;;;;6.63;6.03;;;12.30;99.90;;;;;;4920837;29;20545;-65
2021/12/13 12:06:08;;;;;;;5.47;4.20;;;12.40;99.90;;;;;;4933917;29;20444;-67
2021/12/13 12:09:09;;;;;;;4.83;4.43;;;12.40;99.90;;;;;;4930246;29;20438;-66
2021/12/13 12:12:20;;;;;;;4.97;3.97;;;12.70;99.90;;;;;;4933531;29;20468;-66
2021/12/13 12:14:50;;;;;;;4.77;4.30;;;12.80;99.90;;;;;;4934266;29;20792;-66
2021/12/13 12:17:17;;;;;;;4.23;3.83;;;12.80;99.90;;;;;;4934163;29;20429;-66
2021/12/13 12:19:45;;;;;;;4.70;3.80;;;12.60;99.90;;;;;;4930153;29;20456;-66
2021/12/13 12:22:16;;;;;;;4.53;4.13;;;12.30;99.90;;;;;;4934202;29;20433;-66
2021/12/13 12:24:47;;;;;;;4.37;4.03;;;12.00;99.90;;;;;;4924988;29;20437;-66
2021/12/13 12:27:20;;;;;;;5.60;4.20;;;11.90;99.90;;;;;;4933829;29;20784;-66
2021/12/13 12:29:52;;;;;;;4.70;3.70;;;11.90;99.90;;;;;;4930056;29;20469;-66
2021/12/13 12:32:34;;;;;;;3.90;3.43;;;11.60;99.90;;;;;;4933868;29;20549;-66
2021/12/13 12:35:05;;;;;;;4.13;3.77;;;11.40;99.90;;;;;;4933869;29;20429;-66
2021/12/13 12:37:45;;;;;;;4.20;3.90;;;11.40;99.90;;;;;;4933774;29;20433;-66
2021/12/13 12:40:25;;;;;;;4.67;4.27;;;11.40;99.90;;;;;;4926708;29;20452;-66
2021/12/13 12:42:54;;;;;;;4.60;4.00;;;11.30;99.90;;;;;;4927679;29;20512;-66
2021/12/13 12:45:25;;;;;;;5.53;5.03;;;10.90;99.90;;;;;;4937773;29;20440;-66
2021/12/13 12:47:50;;;;;;;4.77;4.30;;;10.50;99.90;;;;;;4937670;29;20469;-66
2021/12/13 12:50:24;;;;;;;6.30;5.57;;;10.20;99.90;;;;;;4930380;29;20467;-66
2021/12/13 12:53:24;;;;;;;5.63;4.27;;;10.30;99.90;;;;;;4930301;29;20188;-66
2021/12/13 12:55:57;;;;;;;6.33;5.73;;;10.20;99.90;;;;;;4933309;29;20886;-66
2021/12/13 12:58:34;;;;;;;7.00;5.97;;;10.30;99.90;;;;;;4932562;29;20860;-66
2021/12/13 13:01:04;;;;;;;5.97;5.37;;;10.30;99.90;;;;;;4930733;29;20456;-66
2021/12/13 13:03:35;;;;;;;5.63;4.70;;;10.40;99.90;;;;;;4927395;29;20891;-66
2021/12/13 13:06:13;;;;;;;5.43;4.30;;;10.40;99.90;;;;;;4934318;29;20578;-66
2021/12/13 13:08:42;;;;;;;5.03;4.63;;;10.40;99.90;;;;;;4930506;29;20836;-66
2021/12/13 13:11:27;;;;;;;5.97;5.10;;;10.40;99.90;;;;;;4933471;29;20535;-66
2021/12/13 13:14:10;;;;;;;5.20;4.70;;;10.30;99.90;;;;;;4934446;29;20429;-66
2021/12/13 13:16:38;;;;;;;6.67;5.53;;;10.30;99.90;;;;;;4933808;29;20429;-66
2021/12/13 13:19:05;;;;;;;6.33;5.70;;;10.30;99.90;;;;;;4931040;29;20467;-66
2021/12/13 13:21:40;;;;;;;8.60;6.37;;;10.20;99.90;;;;;;4933335;29;20437;-66
2021/12/13 13:24:06;;;;;;;6.90;6.30;;;9.90;99.90;;;;;;4934526;29;20436;-66
2021/12/13 13:26:32;;;;;;;18.33;13.43;;;9.70;99.90;;;;;;4933920;29;20520;-66
2021/12/13 13:29:06;;;;;;;6.83;6.17;;;9.60;99.90;;;;;;4931142;29;20437;-66
2021/12/13 13:31:31;;;;;;;6.83;6.13;;;9.70;99.90;;;;;;4933098;29;20544;-66
2021/12/13 13:34:06;;;;;;;8.30;7.50;;;9.80;99.90;;;;;;4933860;29;20520;-66
2021/12/13 13:36:41;;;;;;;9.17;7.50;;;9.80;99.90;;;;;;4933754;29;20189;-66
2021/12/13 13:39:18;;;;;;;7.47;6.77;;;9.90;99.90;;;;;;4930484;29;20468;-66
2021/12/13 13:41:49;;;;;;;8.23;7.47;;;9.90;99.90;;;;;;4933196;29;20484;-66